Time;durP1;ratioP1;P1;durP2;ratioP2;P2;SDS_P1;SDS_P2;PMS_P1;PMS_P2;Temp;Humidity;BMP_temperature;BMP_pressure;BME280_temperature;BME280_humidity;BME280_pressure;Samples;Min_cycle;Max_cycle;Signal;HPM_P1;HPM_P2
2023/10/13 08:59:52;;;;;;;21.35;9.95;;;;;;;24.17;42.68;95389.00;5075297;27;1404974;-69
2023/10/13 09:02:22;;;;;;;17.05;8.35;;;;;;;24.29;42.21;95379.50;5131944;27;20176;-70
2023/10/13 09:04:59;;;;;;;19.60;8.77;;;;;;;24.44;41.91;95376.66;5131635;27;20689;-70
2023/10/13 09:07:25;;;;;;;20.05;8.93;;;;;;;24.52;41.90;95377.94;5131799;27;20221;-70
2023/10/13 09:12:20;;;;;;;25.48;9.82;;;;;;;24.90;42.54;95388.84;5131035;27;20653;-70
2023/10/13 09:14:58;;;;;;;25.52;9.75;;;;;;;25.12;40.56;95386.41;5131857;27;20656;-70
2023/10/13 09:17:35;;;;;;;21.08;9.55;;;;;;;25.05;40.00;95370.59;5130336;27;20168;-69
2023/10/13 09:25:33;;;;;;;21.35;9.57;;;;;;;25.81;40.03;95368.75;5130720;27;20765;-69
2023/10/13 09:28:00;;;;;;;17.35;8.73;;;;;;;25.93;38.83;95342.13;5130412;27;20174;-69
2023/10/13 09:30:28;;;;;;;17.25;8.02;;;;;;;26.14;38.20;95353.34;5130631;27;20165;-69
2023/10/13 09:33:15;;;;;;;17.85;7.82;;;;;;;26.23;38.64;95365.06;5130552;27;20172;-69
2023/10/13 09:35:49;;;;;;;15.48;7.30;;;;;;;26.27;38.83;95369.63;5130600;27;20176;-69
2023/10/13 09:38:16;;;;;;;24.88;8.45;;;;;;;26.26;38.45;95359.13;5130682;27;20259;-69
2023/10/13 09:41:17;;;;;;;15.00;7.32;;;;;;;26.34;37.34;95354.94;5130703;27;20180;-69
2023/10/13 09:43:31;;;;;;;13.35;6.50;;;;;;;26.38;37.51;95358.66;5128895;27;20176;-69
2023/10/13 09:46:07;;;;;;;15.50;7.53;;;;;;;26.15;36.88;95347.66;5130988;27;20187;-69
2023/10/13 09:48:35;;;;;;;15.80;6.13;;;;;;;26.00;37.33;95349.81;5130473;27;20178;-69
2023/10/13 09:51:08;;;;;;;19.02;6.93;;;;;;;25.82;37.52;95349.56;5130335;27;20172;-69
2023/10/13 09:53:37;;;;;;;16.98;6.97;;;;;;;25.68;37.96;95337.94;5130231;27;20284;-69
2023/10/13 09:56:23;;;;;;;13.02;5.85;;;;;;;25.61;37.78;95344.78;5130172;27;20184;-70
2023/10/13 09:58:54;;;;;;;15.57;5.70;;;;;;;25.46;37.99;95318.81;5130037;27;20573;-70
2023/10/13 10:01:32;;;;;;;11.25;5.35;;;;;;;25.62;37.45;95328.31;5111460;27;20187;-69
2023/10/13 10:04:17;;;;;;;14.98;5.35;;;;;;;25.77;37.14;95330.75;5129987;27;20664;-69
2023/10/13 10:06:53;;;;;;;9.73;5.43;;;;;;;25.74;37.25;95331.34;5129901;27;20175;-70
2023/10/13 10:09:21;;;;;;;27.58;6.95;;;;;;;25.76;37.59;95326.47;5111519;27;20659;-70
2023/10/13 10:12:25;;;;;;;17.13;5.93;;;;;;;25.79;37.34;95323.16;5129858;27;20173;-70
2023/10/13 10:15:46;;;;;;;11.32;4.70;;;;;;;25.78;36.68;95320.75;5129311;27;20191;-69
2023/10/13 10:18:25;;;;;;;10.45;4.93;;;;;;;25.72;36.51;95321.94;5046456;28;20179;-69
2023/10/13 10:20:55;;;;;;;9.82;4.68;;;;;;;25.73;35.96;95313.56;5046381;28;20274;-69
2023/10/13 10:23:35;;;;;;;12.35;4.93;;;;;;;25.68;36.19;95310.16;5093829;27;20188;-69
2023/10/13 10:26:13;;;;;;;13.45;4.53;;;;;;;25.68;36.04;95307.47;5129526;27;20223;-70
2023/10/13 10:28:41;;;;;;;14.45;4.90;;;;;;;25.70;36.16;95307.94;5129380;27;20660;-70
2023/10/13 10:31:16;;;;;;;10.80;4.90;;;;;;;25.77;36.27;95314.56;5129703;27;20168;-69
2023/10/13 10:33:42;;;;;;;12.50;4.40;;;;;;;25.87;35.33;95309.00;5129497;27;20200;-69
2023/10/13 10:36:17;;;;;;;7.93;4.63;;;;;;;25.92;35.33;95310.81;5111336;27;20189;-69
2023/10/13 10:38:59;;;;;;;9.23;4.63;;;;;;;25.97;34.60;95307.22;5129547;27;20235;-70
2023/10/13 10:42:15;;;;;;;14.23;4.82;;;;;;;25.93;34.43;95302.44;5129544;27;20248;-70
2023/10/13 10:44:37;;;;;;;8.18;3.42;;;;;;;25.77;33.91;95298.38;5119722;27;20208;-70
2023/10/13 10:47:30;;;;;;;11.63;3.53;;;;;;;25.68;35.01;95302.88;5129375;27;20187;-70
2023/10/13 10:49:56;;;;;;;10.95;4.10;;;;;;;25.62;34.22;95295.13;5129400;27;20168;-69
2023/10/13 10:52:23;;;;;;;10.95;3.85;;;;;;;25.59;34.96;95296.53;5129133;27;20172;-70
2023/10/13 10:54:59;;;;;;;8.07;3.88;;;;;;;25.58;34.38;95289.50;5129310;27;20219;-70
2023/10/13 10:57:28;;;;;;;7.85;4.07;;;;;;;25.48;34.88;95290.47;5129357;27;20176;-70
2023/10/13 11:00:10;;;;;;;9.60;4.53;;;;;;;25.38;35.06;95289.81;5129068;27;20222;-69
2023/10/13 11:02:36;;;;;;;11.35;3.63;;;;;;;25.36;35.19;95287.41;5129352;27;20175;-69
2023/10/13 11:05:02;;;;;;;8.73;3.53;;;;;;;25.33;35.03;95276.44;5129135;27;20169;-70
2023/10/13 11:07:29;;;;;;;9.20;4.10;;;;;;;25.35;35.06;95282.31;5129180;27;20172;-69
2023/10/13 11:10:06;;;;;;;10.00;4.35;;;;;;;25.40;36.37;95277.66;5129284;27;20180;-69
2023/10/13 11:12:34;;;;;;;10.50;3.95;;;;;;;25.38;36.00;95265.56;5129318;27;20233;-69
2023/10/13 11:15:00;;;;;;;10.48;4.28;;;;;;;25.58;35.91;95273.34;5129436;27;20680;-69
2023/10/13 11:17:48;;;;;;;6.22;3.10;;;;;;;25.68;35.25;95272.41;5128912;27;20176;-69
2023/10/13 11:20:18;;;;;;;10.57;3.65;;;;;;;25.83;34.42;95272.94;5110748;27;20575;-69
2023/10/13 11:22:55;;;;;;;10.77;3.53;;;;;;;25.82;34.55;95263.22;5128976;27;20272;-69
2023/10/13 11:25:34;;;;;;;8.35;3.70;;;;;;;25.92;33.29;95265.75;5129026;27;20251;-69
2023/10/13 11:28:20;;;;;;;6.43;3.55;;;;;;;25.84;33.63;95262.94;5129014;27;20671;-69
2023/10/13 11:30:50;;;;;;;8.75;3.75;;;;;;;25.75;33.80;95238.53;5128007;27;20557;-69
2023/10/13 11:33:23;;;;;;;8.25;3.22;;;;;;;25.92;32.52;95254.97;5128850;27;20251;-69
2023/10/13 11:36:01;;;;;;;6.13;3.05;;;;;;;25.66;33.05;95247.59;5128898;27;20445;-69
2023/10/13 11:48:36;;;;;;;9.27;2.97;;;;;;;25.80;33.29;95241.13;5132475;27;20172;-69
2023/10/13 11:51:24;;;;;;;6.65;3.08;;;;;;;25.85;33.78;95227.56;5132575;27;20260;-69
2023/10/13 11:53:51;;;;;;;10.55;2.95;;;;;;;25.98;33.20;95241.38;5131915;27;20211;-69
2023/10/13 11:56:20;;;;;;;12.52;3.08;;;;;;;26.04;33.14;95237.47;5132315;27;20560;-69
2023/10/13 11:58:46;;;;;;;6.20;2.88;;;;;;;26.13;31.85;95230.28;5132234;27;20239;-69
2023/10/13 12:11:50;;;;;;;5.28;2.45;;;;;;;25.95;30.98;95223.09;5132369;27;20228;-69
2023/10/13 12:14:17;;;;;;;2.30;2.10;;;;;;;25.91;30.97;95220.97;5131885;27;20646;-69
2023/10/13 12:16:51;;;;;;;11.32;2.90;;;;;;;25.95;30.94;95215.78;5131916;27;20173;-69
2023/10/13 12:19:23;;;;;;;6.90;2.58;;;;;;;25.98;31.17;95214.38;5132221;27;20176;-69
2023/10/13 12:21:55;;;;;;;5.50;2.17;;;;;;;25.93;30.51;95207.19;5132123;27;20624;-70
2023/10/13 12:27:02;;;;;;;7.18;2.72;;;;;;;26.02;30.34;95220.78;5132126;27;20180;-70
2023/10/13 12:29:28;;;;;;;4.30;2.13;;;;;;;26.02;30.42;95210.81;5131665;27;20199;-69
2023/10/13 12:32:12;;;;;;;8.35;2.47;;;;;;;26.07;29.80;95209.88;5131729;27;20176;-69
2023/10/13 12:51:20;;;;;;;7.75;2.20;;;;;;;25.81;30.26;95206.88;5131599;27;20977;-70
2023/10/13 12:53:50;;;;;;;3.53;1.85;;;;;;;25.81;30.41;95206.88;5129985;27;20661;-70
2023/10/13 12:56:16;;;;;;;6.28;1.98;;;;;;;25.77;30.22;95200.47;5131140;27;20187;-70
2023/10/13 12:58:51;;;;;;;6.05;2.22;;;;;;;25.76;29.93;95205.06;5131051;27;20299;-70
2023/10/13 13:01:32;;;;;;;5.75;2.22;;;;;;;25.77;30.09;95195.09;5131491;27;20501;-70
2023/10/13 13:03:58;;;;;;;5.82;3.28;;;;;;;25.72;30.03;95190.56;5131192;27;20173;-70
2023/10/13 13:06:26;;;;;;;5.78;1.98;;;;;;;25.69;29.61;95193.84;5131025;27;20171;-70
2023/10/13 13:08:58;;;;;;;3.90;2.17;;;;;;;25.55;29.81;95190.31;5131342;27;20176;-70
2023/10/13 13:11:24;;;;;;;5.43;2.17;;;;;;;25.55;30.05;95195.72;5130873;27;20276;-69
2023/10/13 13:13:51;;;;;;;3.08;1.92;;;;;;;25.38;30.24;95176.59;5130380;27;20227;-70
2023/10/13 13:16:24;;;;;;;4.63;2.20;;;;;;;25.44;30.24;95197.78;5130068;27;20213;-70
2023/10/13 13:18:55;;;;;;;5.38;2.08;;;;;;;25.42;29.86;95189.19;5130078;27;20211;-69
2023/10/13 13:21:23;;;;;;;3.97;1.90;;;;;;;25.45;30.35;95191.28;5130834;27;20172;-70
2023/10/13 13:23:54;;;;;;;4.15;1.70;;;;;;;25.46;30.26;95184.00;5130648;27;20210;-70
2023/10/13 13:26:20;;;;;;;5.38;1.92;;;;;;;25.49;30.56;95191.50;5151457;27;20203;-69
2023/10/13 13:28:50;;;;;;;6.30;2.58;;;;;;;25.49;30.17;95183.41;5150753;27;20647;-70
2023/10/13 13:31:25;;;;;;;3.85;2.22;;;;;;;25.45;30.34;95187.78;5150369;27;20171;-70
2023/10/13 13:33:50;;;;;;;5.50;2.00;;;;;;;25.46;30.63;95194.78;5133713;27;20610;-70
2023/10/13 13:36:16;;;;;;;9.10;2.67;;;;;;;25.45;30.19;95188.59;5151266;27;20171;-69
2023/10/13 13:38:42;;;;;;;11.35;2.47;;;;;;;25.48;29.78;95189.91;5150975;27;20186;-70
2023/10/13 13:41:17;;;;;;;4.85;2.05;;;;;;;25.36;30.35;95184.97;5150757;27;20171;-69
2023/10/13 13:46:18;;;;;;;5.45;2.15;;;;;;;25.32;30.42;95193.97;5150581;27;20176;-69
2023/10/13 13:48:47;;;;;;;6.95;2.30;;;;;;;25.27;30.84;95185.94;5150273;27;20174;-69
2023/10/13 13:51:19;;;;;;;8.10;2.22;;;;;;;25.25;30.60;95188.16;5150385;27;20171;-69
2023/10/13 13:53:45;;;;;;;4.97;2.40;;;;;;;25.27;30.38;95183.25;5150375;27;20257;-70
2023/10/13 13:56:18;;;;;;;6.85;2.03;;;;;;;25.22;30.32;95194.13;5150514;27;20168;-69
2023/10/13 13:58:48;;;;;;;4.72;2.10;;;;;;;25.22;30.39;95188.72;5150325;27;20242;-70
2023/10/13 14:01:25;;;;;;;4.63;2.45;;;;;;;25.11;30.73;95186.19;5150305;27;20167;-70
2023/10/13 14:03:51;;;;;;;5.10;2.38;;;;;;;25.05;30.86;95184.69;5149863;27;20167;-69
2023/10/13 14:06:26;;;;;;;7.70;2.53;;;;;;;25.01;30.61;95183.66;5150098;27;20294;-69
2023/10/13 14:08:56;;;;;;;6.30;2.30;;;;;;;24.92;30.76;95188.09;5150165;27;20218;-70
2023/10/13 14:14:51;;;;;;;5.88;2.85;;;;;;;25.02;30.70;95195.22;5146676;27;20638;-69
2023/10/13 14:17:07;;;;;;;6.60;2.88;;;;;;;25.07;31.21;95190.59;5146187;27;20279;-70
2023/10/13 14:19:33;;;;;;;9.80;2.50;;;;;;;25.00;31.26;95189.31;5150180;27;20372;-69
2023/10/13 14:22:06;;;;;;;4.78;2.53;;;;;;;24.98;31.26;95189.66;5150646;27;20178;-69
2023/10/13 14:24:35;;;;;;;6.90;2.45;;;;;;;24.89;31.53;95179.78;5150969;27;20296;-70
2023/10/13 14:27:09;;;;;;;5.07;2.50;;;;;;;24.89;31.56;95185.97;5150820;27;20194;-69
2023/10/13 14:29:40;;;;;;;6.20;2.45;;;;;;;24.83;31.87;95173.66;5150527;27;20181;-69
2023/10/13 14:32:13;;;;;;;7.60;2.47;;;;;;;24.90;32.33;95189.47;5150315;27;20623;-69
2023/10/13 14:34:43;;;;;;;6.80;2.53;;;;;;;24.82;32.16;95183.63;5133572;27;20204;-69
2023/10/13 14:37:12;;;;;;;10.23;2.67;;;;;;;24.81;33.02;95192.03;5130092;27;20757;-69
2023/10/13 14:39:41;;;;;;;13.73;2.78;;;;;;;24.82;33.48;95186.31;5133413;27;20176;-69
2023/10/13 14:42:06;;;;;;;4.55;2.65;;;;;;;24.72;33.75;95169.53;5133415;27;20256;-69
2023/10/13 14:44:33;;;;;;;5.18;3.20;;;;;;;24.75;33.78;95177.81;5130437;27;21025;-69
2023/10/13 14:46:59;;;;;;;11.23;2.97;;;;;;;24.68;34.16;95173.88;5129816;27;20184;-69
2023/10/13 14:49:24;;;;;;;8.73;3.13;;;;;;;24.65;34.28;95180.66;5129727;27;20168;-69
2023/10/13 14:51:50;;;;;;;12.38;2.90;;;;;;;24.48;34.35;95166.09;5129645;28;20641;-69
2023/10/13 14:54:16;;;;;;;9.70;2.70;;;;;;;24.59;34.25;95175.63;5129659;27;20219;-69
2023/10/13 14:56:42;;;;;;;12.77;2.83;;;;;;;24.48;34.59;95177.66;5129872;27;20581;-69
2023/10/13 14:59:16;;;;;;;15.60;3.00;;;;;;;24.44;34.92;95176.66;5129027;27;20212;-69
2023/10/13 15:01:42;;;;;;;5.85;2.80;;;;;;;24.40;35.01;95171.03;5134901;27;20180;-69
2023/10/13 15:04:08;;;;;;;8.25;3.20;;;;;;;24.37;35.12;95168.13;5130299;27;20597;-69
2023/10/13 15:06:33;;;;;;;6.88;3.08;;;;;;;24.23;35.62;95168.03;5128665;27;20172;-69
2023/10/13 15:09:00;;;;;;;21.05;3.45;;;;;;;24.17;35.66;95171.84;5130141;27;20176;-69
2023/10/13 15:11:26;;;;;;;7.57;3.20;;;;;;;24.23;36.15;95178.00;5129178;27;20264;-69
2023/10/13 15:13:53;;;;;;;7.38;3.67;;;;;;;24.05;36.52;95164.19;5127357;27;20196;-69
2023/10/13 15:16:24;;;;;;;10.87;3.80;;;;;;;24.13;36.41;95178.88;5129155;27;20486;-69
2023/10/13 15:18:53;;;;;;;7.55;3.55;;;;;;;24.00;37.03;95191.16;5144250;27;20421;-69
2023/10/13 15:21:26;;;;;;;9.25;3.08;;;;;;;23.96;36.75;95184.72;5154036;27;20176;-69
2023/10/13 15:23:59;;;;;;;9.70;2.83;;;;;;;23.82;36.80;95183.03;5154164;27;20611;-69
2023/10/13 15:26:29;;;;;;;8.15;3.22;;;;;;;23.57;37.64;95176.84;5153546;27;20627;-69
2023/10/13 15:28:55;;;;;;;10.20;3.42;;;;;;;23.57;37.81;95190.28;5153309;27;20183;-69
2023/10/13 15:34:06;;;;;;;18.83;4.05;;;;;;;23.35;38.70;95186.44;5145992;27;20292;-69
2023/10/13 15:36:35;;;;;;;29.48;4.88;;;;;;;23.19;39.54;95186.53;5134948;27;20652;-69
2023/10/13 15:39:01;;;;;;;34.20;6.13;;;;;;;23.04;40.10;95183.19;5145875;27;20176;-69
2023/10/13 15:41:28;;;;;;;17.55;4.82;;;;;;;22.88;40.88;95185.19;5144019;27;20523;-69
2023/10/13 15:43:55;;;;;;;22.40;5.00;;;;;;;22.72;41.52;95194.41;5153478;27;20171;-69
2023/10/13 15:46:22;;;;;;;34.25;11.50;;;;;;;22.54;42.20;95202.03;5153745;27;20659;-69
2023/10/13 15:48:52;;;;;;;48.03;7.30;;;;;;;22.40;42.37;95197.53;5153526;27;20668;-69
2023/10/13 15:51:19;;;;;;;23.38;4.72;;;;;;;22.26;43.00;95199.22;5153462;27;20203;-69
2023/10/13 15:53:47;;;;;;;16.55;5.93;;;;;;;22.10;43.62;95203.84;5153247;27;20228;-69
2023/10/13 15:56:16;;;;;;;27.55;5.57;;;;;;;21.95;44.42;95210.03;5153134;27;20224;-69
2023/10/13 15:58:45;;;;;;;20.50;5.97;;;;;;;21.78;45.02;95210.34;5144126;27;20211;-69
2023/10/13 16:01:14;;;;;;;24.33;5.75;;;;;;;21.63;45.27;95215.72;5132955;27;20277;-69
2023/10/13 16:03:44;;;;;;;35.83;7.22;;;;;;;21.47;46.49;95208.78;5132633;27;20247;-69
2023/10/13 16:06:13;;;;;;;18.45;5.70;;;;;;;21.28;46.94;95210.41;5132696;27;21622;-69
2023/10/13 16:08:42;;;;;;;46.85;8.23;;;;;;;21.20;47.37;95218.97;5132807;27;20180;-69
2023/10/13 16:11:13;;;;;;;43.55;7.38;;;;;;;21.11;48.12;95218.69;5127556;27;20177;-69
2023/10/13 16:13:42;;;;;;;47.88;7.57;;;;;;;20.96;48.26;95221.34;5132916;27;20259;-69
2023/10/13 16:16:26;;;;;;;45.97;9.73;;;;;;;20.78;49.48;95225.34;5127281;27;20185;-69
2023/10/13 16:18:53;;;;;;;58.47;10.45;;;;;;;20.69;49.84;95233.09;5130543;27;20316;-69
2023/10/13 16:21:19;;;;;;;54.15;9.10;;;;;;;20.62;50.56;95229.06;5131967;27;20172;-69
2023/10/13 16:23:48;;;;;;;72.38;8.68;;;;;;;20.50;50.38;95237.31;5131839;27;20247;-68
2023/10/13 16:26:14;;;;;;;29.73;8.80;;;;;;;20.34;51.33;95238.34;5132031;27;20164;-69
2023/10/13 16:28:39;;;;;;;40.22;8.57;;;;;;;20.22;51.82;95241.22;5126499;27;20564;-69
2023/10/13 16:31:10;;;;;;;51.50;9.45;;;;;;;20.15;51.83;95242.53;5132242;27;20173;-68
2023/10/13 16:33:36;;;;;;;44.80;8.55;;;;;;;20.06;52.15;95236.88;5131922;27;20317;-67
2023/10/13 16:36:05;;;;;;;59.97;10.13;;;;;;;19.89;52.82;95226.34;5127582;27;20676;-67
2023/10/13 16:38:31;;;;;;;26.98;7.97;;;;;;;19.95;53.04;95246.69;5138042;27;20553;-69
2023/10/13 16:40:57;;;;;;;38.78;8.02;;;;;;;19.86;53.29;95248.25;5138759;27;20174;-69
2023/10/13 16:43:22;;;;;;;24.13;7.00;;;;;;;19.77;52.83;95255.16;5143098;27;20932;-69
2023/10/13 16:45:48;;;;;;;35.38;8.07;;;;;;;19.58;54.00;95229.91;5147397;27;20566;-70
2023/10/13 16:48:16;;;;;;;41.42;8.63;;;;;;;19.66;54.18;95248.13;5133276;27;20183;-70
2023/10/13 16:50:46;;;;;;;26.85;7.55;;;;;;;19.56;54.32;95242.72;5136961;27;20715;-69
2023/10/13 16:53:12;;;;;;;26.48;7.25;;;;;;;19.51;54.18;95240.81;5128610;27;20224;-69
2023/10/13 16:55:41;;;;;;;30.05;8.80;;;;;;;19.50;54.21;95243.75;5145418;27;20215;-70
2023/10/13 16:58:10;;;;;;;23.08;6.85;;;;;;;19.39;54.85;95242.81;5130042;27;20172;-70
2023/10/13 17:00:36;;;;;;;29.70;8.18;;;;;;;19.39;54.83;95244.69;5129416;27;20260;-69
2023/10/13 17:03:05;;;;;;;53.05;9.95;;;;;;;19.38;55.55;95246.56;5124253;27;20176;-69
2023/10/13 17:05:40;;;;;;;36.08;9.73;;;;;;;19.34;55.52;95242.00;5138959;27;20608;-69
2023/10/13 17:08:06;;;;;;;41.30;9.32;;;;;;;19.29;55.37;95247.28;5134547;27;20681;-69
2023/10/13 17:10:36;;;;;;;62.58;9.57;;;;;;;19.27;55.96;95258.25;5135455;27;20175;-69
2023/10/13 17:13:04;;;;;;;41.65;10.15;;;;;;;19.23;56.02;95259.78;5132871;27;20176;-69
2023/10/13 17:15:36;;;;;;;30.52;8.43;;;;;;;19.18;56.49;95254.44;5134738;27;20223;-68
2023/10/13 17:18:07;;;;;;;19.67;6.15;;;;;;;19.05;56.58;95260.97;5124519;27;20224;-70
2023/10/13 17:20:39;;;;;;;35.67;7.88;;;;;;;18.94;56.81;95239.81;5134730;27;20547;-69
2023/10/13 17:23:08;;;;;;;27.70;8.25;;;;;;;19.05;57.01;95260.16;5134804;27;20946;-69
2023/10/13 17:25:39;;;;;;;25.13;6.50;;;;;;;19.00;57.50;95266.28;5132272;27;20556;-70
2023/10/13 17:28:14;;;;;;;41.38;8.05;;;;;;;18.98;57.26;95265.72;5133617;27;20177;-70
2023/10/13 17:30:45;;;;;;;28.85;8.90;;;;;;;18.87;57.64;95266.66;5133396;27;20261;-70
2023/10/13 17:33:15;;;;;;;30.05;8.60;;;;;;;18.87;57.79;95268.53;5137517;27;20403;-68
2023/10/13 17:35:41;;;;;;;32.03;8.13;;;;;;;18.85;58.13;95266.91;5129500;27;20200;-68
2023/10/13 17:38:08;;;;;;;40.70;8.18;;;;;;;18.70;58.28;95250.75;5126429;27;20252;-69
2023/10/13 17:40:35;;;;;;;31.05;8.15;;;;;;;18.75;58.52;95268.69;5135056;27;20663;-69
2023/10/13 17:43:02;;;;;;;33.00;9.23;;;;;;;18.64;59.05;95267.78;5131689;27;20168;-69
2023/10/13 17:45:28;;;;;;;28.83;8.68;;;;;;;18.55;58.84;95253.25;5118792;27;20204;-68
2023/10/13 17:47:55;;;;;;;25.42;8.52;;;;;;;18.59;59.11;95266.94;5131891;27;20220;-68
2023/10/13 17:50:20;;;;;;;28.33;9.38;;;;;;;18.34;59.70;95249.53;5136985;27;20595;-69
2023/10/13 17:52:47;;;;;;;33.95;8.65;;;;;;;18.35;59.92;95272.47;5140535;27;20160;-69
2023/10/13 17:55:14;;;;;;;38.28;8.57;;;;;;;18.31;60.16;95266.06;5136643;27;20234;-68
2023/10/13 17:57:40;;;;;;;31.80;9.55;;;;;;;18.24;60.45;95273.44;5146756;27;20172;-69
2023/10/13 18:00:15;;;;;;;49.40;10.00;;;;;;;18.18;60.52;95277.06;5142810;27;20230;-69
2023/10/13 18:02:44;;;;;;;70.23;12.93;;;;;;;18.04;61.54;95273.16;5125236;27;20777;-69
2023/10/13 18:05:14;;;;;;;56.63;11.32;;;;;;;18.02;61.43;95275.25;5121743;27;20176;-69
2023/10/13 18:07:40;;;;;;;37.38;11.20;;;;;;;18.00;61.56;95270.19;5128074;27;20175;-69
2023/10/13 18:10:12;;;;;;;55.53;12.45;;;;;;;17.94;61.60;95271.19;5127136;27;20671;-70
2023/10/13 18:12:38;;;;;;;44.45;12.43;;;;;;;17.91;61.86;95276.16;5139874;27;20259;-69
2023/10/13 18:15:17;;;;;;;48.00;10.73;;;;;;;17.80;62.40;95277.91;5142049;27;20236;-69
2023/10/13 18:17:43;;;;;;;44.67;11.07;;;;;;;17.73;62.63;95284.47;5137036;27;20222;-68
2023/10/13 18:20:18;;;;;;;59.63;11.48;;;;;;;17.69;62.70;95282.28;5143724;27;20656;-68
2023/10/13 18:22:44;;;;;;;33.92;11.50;;;;;;;17.65;62.67;95291.00;5129254;27;20206;-69
2023/10/13 18:25:13;;;;;;;49.67;12.20;;;;;;;17.58;63.03;95285.81;5133868;27;20196;-68
2023/10/13 18:27:43;;;;;;;36.72;11.15;;;;;;;17.51;63.25;95289.69;5143628;27;20163;-69
2023/10/13 18:30:12;;;;;;;31.20;9.85;;;;;;;17.42;63.43;95291.16;5106512;27;20184;-68
2023/10/13 18:32:52;;;;;;;32.33;9.73;;;;;;;17.32;63.86;95294.44;5150950;27;20250;-69
2023/10/13 18:35:18;;;;;;;39.90;9.98;;;;;;;17.12;63.97;95278.16;5132684;27;20519;-69
2023/10/13 18:37:45;;;;;;;24.25;8.57;;;;;;;17.17;63.77;95299.53;5152174;27;20164;-69
2023/10/13 18:40:12;;;;;;;34.67;10.27;;;;;;;17.18;63.67;95301.13;5142369;27;20176;-69
2023/10/13 18:42:42;;;;;;;29.55;9.30;;;;;;;17.06;64.22;95293.22;5129701;27;20164;-69
2023/10/13 18:45:27;;;;;;;30.30;7.88;;;;;;;16.79;65.33;95286.88;5129846;27;20171;-68
2023/10/13 18:47:53;;;;;;;34.05;9.52;;;;;;;16.88;65.04;95302.22;5111034;27;20191;-69
2023/10/13 18:50:20;;;;;;;32.65;8.55;;;;;;;16.74;65.27;95281.47;5110884;27;20172;-69
2023/10/13 18:52:47;;;;;;;26.10;10.45;;;;;;;16.61;66.12;95285.22;5134006;27;20175;-69
2023/10/13 18:55:13;;;;;;;37.67;10.27;;;;;;;16.75;65.65;95301.72;5143611;27;20183;-69
2023/10/13 18:57:45;;;;;;;30.02;9.52;;;;;;;16.68;65.84;95301.84;5154272;27;20160;-69
2023/10/13 19:00:14;;;;;;;34.08;9.25;;;;;;;16.70;66.13;95310.38;5146868;27;20219;-68
2023/10/13 19:02:41;;;;;;;25.20;9.10;;;;;;;16.66;66.10;95308.44;5137477;27;20553;-69
2023/10/13 19:05:09;;;;;;;35.10;9.82;;;;;;;16.63;66.42;95303.59;5131112;27;20180;-68
2023/10/13 19:07:36;;;;;;;31.08;10.63;;;;;;;16.53;66.61;95296.19;5135167;27;20209;-68
2023/10/13 19:10:14;;;;;;;43.33;11.45;;;;;;;16.52;66.81;95300.72;5140969;27;20175;-68
2023/10/13 19:12:45;;;;;;;43.28;11.73;;;;;;;16.52;66.79;95310.53;5112158;27;21032;-68
2023/10/13 19:15:12;;;;;;;32.10;11.13;;;;;;;16.44;66.75;95294.97;5134561;27;20229;-69
2023/10/13 19:17:41;;;;;;;40.65;12.90;;;;;;;16.50;66.97;95307.31;5132679;27;20652;-68
2023/10/13 19:20:15;;;;;;;34.67;11.32;;;;;;;16.43;66.75;95304.00;5152730;27;20212;-68
2023/10/13 19:22:52;;;;;;;25.95;9.75;;;;;;;16.40;67.09;95294.63;5133891;27;20202;-68
2023/10/13 19:25:35;;;;;;;24.75;10.38;;;;;;;16.39;67.06;95301.00;5130986;27;20164;-69
2023/10/13 19:28:01;;;;;;;34.45;9.35;;;;;;;16.35;67.15;95297.19;5133275;27;20176;-69
2023/10/13 19:30:28;;;;;;;29.75;8.90;;;;;;;16.35;67.16;95299.03;5147079;27;20175;-69
2023/10/13 19:32:55;;;;;;;30.02;10.65;;;;;;;16.35;67.28;95291.88;5149966;27;20168;-69
2023/10/13 19:35:21;;;;;;;25.48;9.07;;;;;;;16.34;67.14;95297.44;5134191;27;20193;-69
2023/10/13 19:37:47;;;;;;;21.98;9.07;;;;;;;16.30;67.38;95293.63;5134838;27;20164;-69
2023/10/13 19:40:12;;;;;;;30.45;9.32;;;;;;;16.26;67.40;95290.63;5148340;27;20172;-70
2023/10/13 19:42:40;;;;;;;27.45;9.70;;;;;;;16.21;67.55;95296.66;5130975;27;20171;-70
2023/10/13 19:45:12;;;;;;;21.02;8.35;;;;;;;16.13;67.62;95291.69;5143635;27;20188;-69
2023/10/13 19:47:39;;;;;;;27.77;8.93;;;;;;;16.07;67.86;95289.19;5111727;27;20180;-69
2023/10/13 19:50:05;;;;;;;46.10;8.18;;;;;;;15.99;67.99;95286.88;5133094;27;20722;-69
2023/10/13 19:52:31;;;;;;;30.00;8.98;;;;;;;16.00;67.93;95294.59;5133356;27;20176;-69
2023/10/13 19:54:57;;;;;;;23.45;8.65;;;;;;;15.95;68.14;95294.50;5132717;27;20281;-69
2023/10/13 19:57:22;;;;;;;27.95;8.20;;;;;;;15.86;68.44;95298.56;5143510;27;20225;-69
2023/10/13 19:59:48;;;;;;;29.13;8.00;;;;;;;15.76;68.52;95301.78;5153461;27;20350;-69
2023/10/13 20:02:13;;;;;;;27.38;8.32;;;;;;;15.71;68.88;95308.84;5148443;27;20174;-69
2023/10/13 20:04:38;;;;;;;31.43;9.23;;;;;;;15.66;69.18;95306.06;5135875;27;20407;-69
2023/10/13 20:07:05;;;;;;;29.90;9.02;;;;;;;15.66;68.95;95316.66;5139182;27;20180;-69
2023/10/13 20:09:31;;;;;;;29.60;8.32;;;;;;;15.66;68.97;95317.47;5128866;27;20172;-69
2023/10/13 20:11:58;;;;;;;26.75;9.07;;;;;;;15.64;69.18;95314.28;5133803;27;20236;-69
2023/10/13 20:14:24;;;;;;;34.85;9.98;;;;;;;15.62;69.19;95312.88;5133322;27;20196;-69
2023/10/13 20:16:50;;;;;;;44.92;9.23;;;;;;;15.52;69.52;95317.91;5131629;27;20675;-69
2023/10/13 20:19:18;;;;;;;32.72;9.45;;;;;;;15.48;69.61;95307.75;5124232;27;20176;-69
2023/10/13 20:21:44;;;;;;;33.53;9.75;;;;;;;15.43;69.80;95309.47;5131608;27;20164;-70
2023/10/13 20:24:10;;;;;;;27.60;9.63;;;;;;;15.23;70.34;95277.97;5134265;27;20525;-70
2023/10/13 20:26:42;;;;;;;27.77;9.38;;;;;;;15.17;70.37;95278.06;5132414;27;20259;-70
2023/10/13 20:29:15;;;;;;;29.67;9.20;;;;;;;15.29;70.55;95300.94;5126752;27;20173;-70
2023/10/13 20:31:44;;;;;;;32.65;11.05;;;;;;;15.26;70.97;95309.34;5129824;27;20420;-70
2023/10/13 20:34:12;;;;;;;41.05;11.25;;;;;;;15.10;70.73;95296.75;5137294;27;20272;-70
2023/10/13 20:36:40;;;;;;;29.20;12.20;;;;;;;15.02;70.69;95297.09;5134553;27;20616;-70
2023/10/13 20:39:07;;;;;;;27.10;10.10;;;;;;;15.08;70.25;95299.63;5130017;27;20181;-70
2023/10/13 20:41:32;;;;;;;27.38;9.38;;;;;;;15.08;70.56;95302.28;5133454;27;20198;-70
2023/10/13 20:43:57;;;;;;;24.55;9.65;;;;;;;15.09;70.17;95311.03;5134175;27;20612;-70
2023/10/13 20:46:23;;;;;;;21.10;8.48;;;;;;;15.12;70.42;95307.94;5133675;27;20167;-70
2023/10/13 20:48:48;;;;;;;30.67;10.20;;;;;;;15.10;70.28;95310.00;5135743;27;20304;-69
2023/10/13 20:51:14;;;;;;;50.95;12.80;;;;;;;15.04;70.54;95306.44;5113528;27;21646;-69
2023/10/13 20:53:41;;;;;;;33.40;10.38;;;;;;;15.01;70.50;95311.38;5133682;27;20176;-70
2023/10/13 20:56:09;;;;;;;33.90;9.70;;;;;;;14.95;71.01;95304.34;5137695;27;20670;-69
2023/10/13 20:58:37;;;;;;;29.92;9.73;;;;;;;14.90;70.90;95301.53;5130528;27;20212;-70
2023/10/13 21:01:09;;;;;;;34.35;9.77;;;;;;;14.83;71.15;95303.47;5129703;27;20160;-68
2023/10/13 21:03:38;;;;;;;28.35;9.95;;;;;;;14.80;71.00;95294.13;5130678;27;20309;-69
2023/10/13 21:06:08;;;;;;;27.17;10.60;;;;;;;14.79;71.55;95299.69;5133628;27;20279;-70
2023/10/13 21:08:50;;;;;;;27.95;10.77;;;;;;;14.80;71.27;95299.44;5119436;27;20177;-70
2023/10/13 21:11:17;;;;;;;26.42;10.25;;;;;;;14.77;71.32;95299.09;5140079;27;20186;-69
2023/10/13 21:13:44;;;;;;;15.93;9.20;;;;;;;14.61;71.20;95280.16;5147174;27;20267;-70
2023/10/13 21:16:10;;;;;;;20.85;9.07;;;;;;;14.60;71.48;95278.53;5132561;27;20222;-70
2023/10/13 21:18:41;;;;;;;25.10;9.98;;;;;;;14.64;71.78;95295.56;5125345;27;20704;-71
2023/10/13 21:21:21;;;;;;;26.58;9.40;;;;;;;14.63;71.64;95309.84;5141052;27;20932;-69
2023/10/13 21:23:51;;;;;;;29.08;9.82;;;;;;;14.61;71.86;95298.69;5149109;27;20233;-70
2023/10/13 21:26:21;;;;;;;19.00;9.15;;;;;;;14.52;72.17;95296.56;5126235;27;20308;-70
2023/10/13 21:28:48;;;;;;;20.63;8.80;;;;;;;14.48;72.03;95296.22;5133193;27;20250;-70
2023/10/13 21:31:18;;;;;;;25.45;9.10;;;;;;;14.39;72.46;95284.31;5129689;27;20184;-70
2023/10/13 21:33:46;;;;;;;26.27;9.87;;;;;;;14.40;72.75;95285.13;5145469;27;20218;-70
2023/10/13 21:36:15;;;;;;;33.47;11.90;;;;;;;14.38;72.63;95290.59;5127834;27;20177;-70